TRA64R LEMG-LFMN
Flight info
| Callsign | TRA64R |
|---|---|
| Flight time | 1h 34m |
| Altitude | 34000 |
| Route | RIXUR M445 SOPET/N0436F360 DCT DIKUT DCT TORDU DCT LOTOS DCT EBROX DCT PEXOT DCT RODRA DCT BCN DCT FEVIK N870 DALIN DCT PIVUS DCT DIBER DCT SOSUR DCT SOFFY DCT MRM DCT ABLAK |
| Aircraft | A321/M-SDE3FGHIRWY/LB1 |
Departure
| Time | 2026-05-08 06:44 |
|---|---|
| Airport | Málaga-Costa del Sol Airport (LEMG) |
Arrival
| Time | 2026-05-08 08:18 |
|---|---|
| Airport | Nice-Côte d'Azur Airport (LFMN) |
| Time | Latitude | Longitude | Altitude | Speed | Heading |
|---|---|---|---|---|---|
| 2026-05-08 06:27 | 36.67732 | -4.49581 | 42 ft | 0 kts | 41° |
| 2026-05-08 06:36 | 36.67730 | -4.49583 | 42 ft | 2 kts | 41° |
| 2026-05-08 06:36 | 36.67710 | -4.49603 | 40 ft | 4 kts | 31° |
| 2026-05-08 06:37 | 36.67686 | -4.49616 | 38 ft | 4 kts | 2° |
| 2026-05-08 06:37 | 36.67666 | -4.49609 | 38 ft | 3 kts | 316° |
| 2026-05-08 06:37 | 36.67648 | -4.49587 | 42 ft | 2 kts | 311° |
| 2026-05-08 06:37 | 36.67647 | -4.49585 | 42 ft | 0 kts | 311° |
| 2026-05-08 06:39 | 36.67669 | -4.49615 | 42 ft | 8 kts | 311° |
| 2026-05-08 06:39 | 36.67704 | -4.49665 | 42 ft | 8 kts | 311° |
| 2026-05-08 06:40 | 36.67745 | -4.49722 | 42 ft | 10 kts | 311° |
| 2026-05-08 06:40 | 36.67793 | -4.49790 | 42 ft | 11 kts | 308° |
| 2026-05-08 06:40 | 36.67762 | -4.49861 | 42 ft | 12 kts | 207° |
| 2026-05-08 06:40 | 36.67730 | -4.49939 | 43 ft | 11 kts | 290° |
| 2026-05-08 06:41 | 36.67780 | -4.50018 | 44 ft | 12 kts | 314° |
| 2026-05-08 06:41 | 36.67840 | -4.50099 | 44 ft | 14 kts | 310° |
| 2026-05-08 06:41 | 36.67893 | -4.50176 | 44 ft | 21 kts | 311° |
| 2026-05-08 06:42 | 36.67918 | -4.50211 | 45 ft | 24 kts | 311° |
| 2026-05-08 06:42 | 36.68055 | -4.50402 | 44 ft | 35 kts | 311° |
| 2026-05-08 06:42 | 36.68240 | -4.50664 | 45 ft | 45 kts | 312° |
| 2026-05-08 06:42 | 36.68432 | -4.50929 | 50 ft | 17 kts | 311° |
| 2026-05-08 06:43 | 36.68496 | -4.51029 | 54 ft | 13 kts | 293° |
| 2026-05-08 06:43 | 36.68471 | -4.51116 | 53 ft | 12 kts | 209° |
| 2026-05-08 06:43 | 36.68374 | -4.51133 | 61 ft | 17 kts | 159° |
| 2026-05-08 06:43 | 36.68261 | -4.50990 | 56 ft | 36 kts | 131° |
| 2026-05-08 06:44 | 36.67878 | -4.50452 | 51 ft | 127 kts | 131° |
| 2026-05-08 06:44 | 36.67129 | -4.49399 | 170 ft | 185 kts | 132° |
| 2026-05-08 06:44 | 36.66275 | -4.48244 | 1222 ft | 181 kts | 132° |
| 2026-05-08 06:44 | 36.65407 | -4.47073 | 2174 ft | 184 kts | 133° |
| 2026-05-08 06:45 | 36.64519 | -4.45871 | 2617 ft | 196 kts | 133° |
| 2026-05-08 06:45 | 36.63533 | -4.44531 | 2773 ft | 224 kts | 132° |
| 2026-05-08 06:45 | 36.62466 | -4.43025 | 3461 ft | 233 kts | 130° |
| 2026-05-08 06:45 | 36.61407 | -4.41532 | 4554 ft | 231 kts | 131° |
| 2026-05-08 06:46 | 36.60370 | -4.40019 | 5431 ft | 234 kts | 127° |
| 2026-05-08 06:46 | 36.59697 | -4.38176 | 6325 ft | 239 kts | 103° |
| 2026-05-08 06:46 | 36.59459 | -4.36104 | 7030 ft | 245 kts | 102° |
| 2026-05-08 06:46 | 36.59169 | -4.33982 | 7695 ft | 252 kts | 104° |
| 2026-05-08 06:47 | 36.58829 | -4.31824 | 8389 ft | 257 kts | 106° |
| 2026-05-08 06:47 | 36.58432 | -4.29637 | 9093 ft | 262 kts | 107° |
| 2026-05-08 06:47 | 36.58212 | -4.27342 | 9715 ft | 276 kts | 91° |
| 2026-05-08 06:47 | 36.58376 | -4.24877 | 10123 ft | 294 kts | 88° |
| 2026-05-08 06:48 | 36.58576 | -4.22249 | 10420 ft | 316 kts | 87° |
| 2026-05-08 06:48 | 36.58803 | -4.19493 | 11065 ft | 322 kts | 88° |
| 2026-05-08 06:48 | 36.59027 | -4.16701 | 11791 ft | 326 kts | 88° |
| 2026-05-08 06:48 | 36.59248 | -4.13869 | 12525 ft | 331 kts | 89° |
| 2026-05-08 06:49 | 36.59464 | -4.11037 | 13236 ft | 336 kts | 89° |
| 2026-05-08 06:49 | 36.59867 | -4.08136 | 13919 ft | 346 kts | 77° |
| 2026-05-08 06:49 | 36.60787 | -4.05338 | 14548 ft | 354 kts | 62° |
| 2026-05-08 06:49 | 36.62070 | -4.02687 | 15203 ft | 359 kts | 59° |
| 2026-05-08 06:50 | 36.63395 | -4.00032 | 15851 ft | 363 kts | 54° |
| 2026-05-08 06:50 | 36.65038 | -3.97627 | 16491 ft | 366 kts | 41° |
| 2026-05-08 06:50 | 36.67067 | -3.95616 | 16726 ft | 381 kts | 28° |
| 2026-05-08 06:50 | 36.69405 | -3.93917 | 16877 ft | 398 kts | 26° |
| 2026-05-08 06:51 | 36.71854 | -3.92165 | 17153 ft | 411 kts | 26° |
| 2026-05-08 06:51 | 36.74358 | -3.90367 | 17674 ft | 417 kts | 26° |
| 2026-05-08 06:51 | 36.76876 | -3.88548 | 18264 ft | 421 kts | 26° |
| 2026-05-08 06:51 | 36.79421 | -3.86699 | 18761 ft | 424 kts | 26° |
| 2026-05-08 06:52 | 36.81943 | -3.84857 | 19260 ft | 428 kts | 26° |
| 2026-05-08 06:52 | 36.84523 | -3.82970 | 19776 ft | 432 kts | 26° |
| 2026-05-08 06:52 | 36.87124 | -3.81068 | 20268 ft | 435 kts | 27° |
| 2026-05-08 06:52 | 36.89754 | -3.79147 | 20733 ft | 439 kts | 26° |
| 2026-05-08 06:53 | 36.92402 | -3.77214 | 21185 ft | 443 kts | 27° |
| 2026-05-08 06:53 | 36.95082 | -3.75257 | 21661 ft | 448 kts | 27° |
| 2026-05-08 06:53 | 36.97792 | -3.73277 | 22067 ft | 454 kts | 27° |
| 2026-05-08 06:53 | 37.00525 | -3.71275 | 22501 ft | 458 kts | 27° |
| 2026-05-08 06:54 | 37.00887 | -3.71009 | 22554 ft | 458 kts | 27° |
| 2026-05-08 06:54 | 37.03331 | -3.69214 | 22949 ft | 462 kts | 27° |
| 2026-05-08 06:54 | 37.06108 | -3.67172 | 23388 ft | 465 kts | 27° |
| 2026-05-08 06:54 | 37.08908 | -3.65101 | 23769 ft | 469 kts | 29° |
| 2026-05-08 06:55 | 37.11557 | -3.62659 | 24129 ft | 475 kts | 40° |
| 2026-05-08 06:55 | 37.13929 | -3.59741 | 24496 ft | 478 kts | 45° |
| 2026-05-08 06:55 | 37.16218 | -3.56772 | 24870 ft | 481 kts | 45° |
| 2026-05-08 06:55 | 37.18551 | -3.53750 | 25259 ft | 484 kts | 45° |
| 2026-05-08 06:56 | 37.20905 | -3.50708 | 25649 ft | 486 kts | 45° |
| 2026-05-08 06:56 | 37.23266 | -3.47661 | 26047 ft | 488 kts | 45° |
| 2026-05-08 06:56 | 37.25638 | -3.44600 | 26421 ft | 490 kts | 45° |
| 2026-05-08 06:56 | 37.28020 | -3.41519 | 26742 ft | 493 kts | 45° |
| 2026-05-08 06:57 | 37.30414 | -3.38413 | 27101 ft | 495 kts | 45° |
| 2026-05-08 06:57 | 37.32816 | -3.35292 | 27462 ft | 497 kts | 45° |
| 2026-05-08 06:57 | 37.35226 | -3.32155 | 27804 ft | 500 kts | 45° |
| 2026-05-08 06:57 | 37.37650 | -3.29001 | 28136 ft | 502 kts | 45° |
| 2026-05-08 06:58 | 37.40087 | -3.25826 | 28457 ft | 505 kts | 45° |
| 2026-05-08 06:58 | 37.42497 | -3.22683 | 28794 ft | 507 kts | 45° |
| 2026-05-08 06:58 | 37.44956 | -3.19473 | 29143 ft | 509 kts | 46° |
| 2026-05-08 06:58 | 37.47413 | -3.16261 | 29473 ft | 511 kts | 46° |
| 2026-05-08 06:59 | 37.49880 | -3.13028 | 29771 ft | 513 kts | 46° |
| 2026-05-08 06:59 | 37.52361 | -3.09776 | 30067 ft | 515 kts | 46° |
| 2026-05-08 06:59 | 37.54857 | -3.06508 | 30330 ft | 517 kts | 46° |
| 2026-05-08 06:59 | 37.57329 | -3.03270 | 30536 ft | 519 kts | 47° |
| 2026-05-08 07:00 | 37.59836 | -2.99979 | 30764 ft | 521 kts | 47° |
| 2026-05-08 07:00 | 37.62354 | -2.96668 | 31039 ft | 523 kts | 47° |
| 2026-05-08 07:00 | 37.64867 | -2.93357 | 31434 ft | 522 kts | 47° |
| 2026-05-08 07:00 | 37.67382 | -2.90042 | 31826 ft | 521 kts | 47° |
| 2026-05-08 07:01 | 37.69888 | -2.86745 | 32266 ft | 519 kts | 47° |
| 2026-05-08 07:01 | 37.72384 | -2.83457 | 32686 ft | 518 kts | 48° |
| 2026-05-08 07:01 | 37.74877 | -2.80167 | 33071 ft | 517 kts | 48° |
| 2026-05-08 07:01 | 37.77337 | -2.76916 | 33451 ft | 516 kts | 48° |
| 2026-05-08 07:02 | 37.79819 | -2.73633 | 33836 ft | 516 kts | 48° |
| 2026-05-08 07:02 | 37.82304 | -2.70345 | 33958 ft | 514 kts | 48° |
| 2026-05-08 07:02 | 37.87173 | -2.63889 | 33980 ft | 503 kts | 48° |
| 2026-05-08 07:03 | 37.91987 | -2.57471 | 33989 ft | 501 kts | 48° |
| 2026-05-08 07:03 | 37.96786 | -2.51061 | 33987 ft | 500 kts | 48° |
| 2026-05-08 07:04 | 38.01555 | -2.44702 | 34002 ft | 502 kts | 48° |
| 2026-05-08 07:04 | 38.03967 | -2.41479 | 34185 ft | 505 kts | 48° |
| 2026-05-08 07:04 | 38.06395 | -2.38230 | 34442 ft | 506 kts | 48° |
| 2026-05-08 07:05 | 38.08815 | -2.34986 | 34711 ft | 506 kts | 48° |
| 2026-05-08 07:05 | 38.11234 | -2.31736 | 34990 ft | 506 kts | 48° |
| 2026-05-08 07:05 | 38.13659 | -2.28476 | 35199 ft | 506 kts | 47° |
| 2026-05-08 07:05 | 38.16078 | -2.25225 | 35428 ft | 507 kts | 47° |
| 2026-05-08 07:06 | 38.18505 | -2.21963 | 35695 ft | 507 kts | 47° |
| 2026-05-08 07:06 | 38.20878 | -2.18722 | 35953 ft | 507 kts | 51° |
| 2026-05-08 07:06 | 38.25269 | -2.11701 | 36009 ft | 506 kts | 53° |
| 2026-05-08 07:07 | 38.29614 | -2.04658 | 36004 ft | 505 kts | 53° |
| 2026-05-08 07:07 | 38.33935 | -1.97652 | 36016 ft | 505 kts | 53° |
| 2026-05-08 07:08 | 38.38279 | -1.90609 | 35982 ft | 505 kts | 53° |
| 2026-05-08 07:08 | 38.42640 | -1.83529 | 36018 ft | 508 kts | 53° |
| 2026-05-08 07:09 | 38.46980 | -1.76471 | 36019 ft | 508 kts | 53° |
| 2026-05-08 07:09 | 38.51343 | -1.69341 | 36021 ft | 508 kts | 54° |
| 2026-05-08 07:10 | 38.55699 | -1.62194 | 36022 ft | 508 kts | 54° |
| 2026-05-08 07:10 | 38.60026 | -1.55096 | 36023 ft | 508 kts | 54° |
| 2026-05-08 07:11 | 38.64373 | -1.47959 | 35997 ft | 508 kts | 53° |
| 2026-05-08 07:11 | 38.68716 | -1.40815 | 36026 ft | 508 kts | 53° |
| 2026-05-08 07:12 | 38.73047 | -1.33660 | 36034 ft | 508 kts | 54° |
| 2026-05-08 07:12 | 38.77354 | -1.26529 | 36039 ft | 508 kts | 54° |
| 2026-05-08 07:13 | 38.81689 | -1.19335 | 36043 ft | 508 kts | 54° |
| 2026-05-08 07:13 | 38.85975 | -1.12212 | 36008 ft | 508 kts | 53° |
| 2026-05-08 07:14 | 38.90299 | -1.05025 | 36035 ft | 508 kts | 53° |
| 2026-05-08 07:14 | 38.94610 | -0.97837 | 36044 ft | 506 kts | 53° |
| 2026-05-08 07:15 | 38.98876 | -0.90694 | 36042 ft | 505 kts | 53° |
| 2026-05-08 07:15 | 39.02457 | -0.84683 | 36038 ft | 504 kts | 54° |
| 2026-05-08 07:16 | 39.06798 | -0.77658 | 36046 ft | 505 kts | 46° |
| 2026-05-08 07:16 | 39.12083 | -0.71717 | 36028 ft | 504 kts | 38° |
| 2026-05-08 07:17 | 39.17462 | -0.66003 | 36044 ft | 503 kts | 39° |
| 2026-05-08 07:17 | 39.22852 | -0.60239 | 36034 ft | 503 kts | 39° |
| 2026-05-08 07:18 | 39.28240 | -0.54467 | 36033 ft | 502 kts | 38° |
| 2026-05-08 07:18 | 39.33739 | -0.48898 | 36022 ft | 501 kts | 35° |
| 2026-05-08 07:19 | 39.39335 | -0.43597 | 36043 ft | 500 kts | 34° |
| 2026-05-08 07:19 | 39.44946 | -0.38271 | 36052 ft | 499 kts | 36° |
| 2026-05-08 07:20 | 39.50503 | -0.32854 | 36043 ft | 498 kts | 36° |
| 2026-05-08 07:20 | 39.55985 | -0.27454 | 36047 ft | 498 kts | 36° |
| 2026-05-08 07:21 | 39.61520 | -0.22009 | 36054 ft | 497 kts | 36° |
| 2026-05-08 07:21 | 39.67034 | -0.16585 | 36039 ft | 497 kts | 36° |
| 2026-05-08 07:22 | 39.72552 | -0.11161 | 36029 ft | 497 kts | 36° |
| 2026-05-08 07:22 | 39.78029 | -0.05768 | 36019 ft | 496 kts | 36° |
| 2026-05-08 07:23 | 39.83469 | -0.00232 | 36021 ft | 497 kts | 43° |
| 2026-05-08 07:23 | 39.88253 | 0.06273 | 36007 ft | 497 kts | 47° |
| 2026-05-08 07:24 | 39.92983 | 0.12851 | 36003 ft | 498 kts | 46° |
| 2026-05-08 07:24 | 39.97717 | 0.19443 | 35998 ft | 498 kts | 47° |
| 2026-05-08 07:25 | 40.02420 | 0.26009 | 36008 ft | 498 kts | 47° |
| 2026-05-08 07:26 | 40.09529 | 0.35941 | 36028 ft | 498 kts | 47° |
| 2026-05-08 07:26 | 40.14268 | 0.42585 | 36003 ft | 498 kts | 46° |
| 2026-05-08 07:27 | 40.18967 | 0.49199 | 36007 ft | 499 kts | 46° |
| 2026-05-08 07:27 | 40.23694 | 0.55857 | 36006 ft | 499 kts | 46° |
| 2026-05-08 07:28 | 40.28426 | 0.62521 | 36030 ft | 499 kts | 46° |
| 2026-05-08 07:28 | 40.33108 | 0.69148 | 36030 ft | 497 kts | 46° |
| 2026-05-08 07:29 | 40.37822 | 0.75833 | 36030 ft | 497 kts | 46° |
| 2026-05-08 07:29 | 40.42479 | 0.82456 | 36015 ft | 496 kts | 46° |
| 2026-05-08 07:30 | 40.47157 | 0.89131 | 36019 ft | 496 kts | 46° |
| 2026-05-08 07:30 | 40.51834 | 0.95813 | 36030 ft | 495 kts | 46° |
| 2026-05-08 07:31 | 40.56485 | 1.02462 | 36036 ft | 495 kts | 46° |
| 2026-05-08 07:31 | 40.61149 | 1.09149 | 36027 ft | 494 kts | 46° |
| 2026-05-08 07:32 | 40.65783 | 1.15808 | 36019 ft | 494 kts | 46° |
| 2026-05-08 07:32 | 40.70393 | 1.22475 | 36015 ft | 494 kts | 46° |
| 2026-05-08 07:33 | 40.75037 | 1.29196 | 36011 ft | 494 kts | 45° |
| 2026-05-08 07:33 | 40.79651 | 1.35855 | 36019 ft | 494 kts | 45° |
| 2026-05-08 07:34 | 40.84287 | 1.42567 | 36020 ft | 494 kts | 46° |
| 2026-05-08 07:34 | 40.88921 | 1.49300 | 36015 ft | 494 kts | 46° |
| 2026-05-08 07:35 | 40.93545 | 1.56047 | 36035 ft | 494 kts | 45° |
| 2026-05-08 07:35 | 40.98139 | 1.62764 | 36030 ft | 494 kts | 45° |
| 2026-05-08 07:36 | 41.02756 | 1.69519 | 36033 ft | 493 kts | 45° |
| 2026-05-08 07:36 | 41.07358 | 1.76271 | 36027 ft | 493 kts | 45° |
| 2026-05-08 07:37 | 41.11919 | 1.82985 | 36042 ft | 493 kts | 45° |
| 2026-05-08 07:37 | 41.16528 | 1.89776 | 36026 ft | 493 kts | 45° |
| 2026-05-08 07:38 | 41.21118 | 1.96550 | 36008 ft | 493 kts | 45° |
| 2026-05-08 07:38 | 41.25712 | 2.03347 | 36005 ft | 494 kts | 45° |
| 2026-05-08 07:39 | 41.30128 | 2.10277 | 36002 ft | 496 kts | 54° |
| 2026-05-08 07:39 | 41.33372 | 2.18416 | 36024 ft | 498 kts | 64° |
| 2026-05-08 07:40 | 41.36268 | 2.26738 | 36012 ft | 498 kts | 64° |
| 2026-05-08 07:40 | 41.39184 | 2.35135 | 36002 ft | 499 kts | 64° |
| 2026-05-08 07:41 | 41.42088 | 2.43554 | 36002 ft | 499 kts | 64° |
| 2026-05-08 07:41 | 41.44988 | 2.51986 | 36002 ft | 500 kts | 64° |
| 2026-05-08 07:42 | 41.47867 | 2.60358 | 36008 ft | 500 kts | 64° |
| 2026-05-08 07:42 | 41.50763 | 2.68807 | 36005 ft | 500 kts | 64° |
| 2026-05-08 07:43 | 41.53658 | 2.77278 | 36028 ft | 501 kts | 64° |
| 2026-05-08 07:43 | 41.56522 | 2.85702 | 36022 ft | 501 kts | 64° |
| 2026-05-08 07:44 | 41.59406 | 2.94204 | 36023 ft | 501 kts | 64° |
| 2026-05-08 07:44 | 41.62283 | 3.02714 | 36022 ft | 502 kts | 64° |
| 2026-05-08 07:45 | 41.65148 | 3.11218 | 36023 ft | 502 kts | 63° |
| 2026-05-08 07:45 | 41.68009 | 3.19750 | 36016 ft | 502 kts | 63° |
| 2026-05-08 07:46 | 41.70850 | 3.28221 | 36025 ft | 503 kts | 63° |
| 2026-05-08 07:46 | 41.73715 | 3.36774 | 36038 ft | 503 kts | 63° |
| 2026-05-08 07:47 | 41.76571 | 3.45343 | 36040 ft | 503 kts | 63° |
| 2026-05-08 07:47 | 41.79418 | 3.53907 | 36039 ft | 503 kts | 63° |
| 2026-05-08 07:48 | 41.82231 | 3.62413 | 36031 ft | 503 kts | 64° |
| 2026-05-08 07:48 | 41.85057 | 3.71006 | 36036 ft | 503 kts | 64° |
| 2026-05-08 07:49 | 41.87879 | 3.79589 | 36037 ft | 503 kts | 64° |
| 2026-05-08 07:49 | 41.90698 | 3.88179 | 36025 ft | 503 kts | 63° |
| 2026-05-08 07:50 | 41.93510 | 3.96792 | 36052 ft | 504 kts | 63° |
| 2026-05-08 07:50 | 41.96307 | 4.05379 | 36047 ft | 504 kts | 63° |
| 2026-05-08 07:51 | 41.99112 | 4.14013 | 36049 ft | 504 kts | 63° |
| 2026-05-08 07:51 | 42.01911 | 4.22662 | 36050 ft | 504 kts | 63° |
| 2026-05-08 07:52 | 42.04708 | 4.31324 | 36042 ft | 505 kts | 63° |
| 2026-05-08 07:52 | 42.07576 | 4.39883 | 36038 ft | 501 kts | 56° |
| 2026-05-08 07:53 | 42.11608 | 4.47420 | 36079 ft | 492 kts | 44° |
| 2026-05-08 07:53 | 42.15977 | 4.54464 | 36068 ft | 492 kts | 44° |
| 2026-05-08 07:54 | 42.20352 | 4.61576 | 36056 ft | 492 kts | 44° |
| 2026-05-08 07:54 | 42.24708 | 4.68700 | 36054 ft | 492 kts | 44° |
| 2026-05-08 07:55 | 42.29060 | 4.75837 | 36051 ft | 491 kts | 44° |
| 2026-05-08 07:55 | 42.33388 | 4.82925 | 36070 ft | 491 kts | 44° |
| 2026-05-08 07:56 | 42.37743 | 4.90068 | 36065 ft | 491 kts | 44° |
| 2026-05-08 07:56 | 42.42061 | 4.97173 | 36055 ft | 490 kts | 44° |
| 2026-05-08 07:56 | 42.44229 | 5.00747 | 35829 ft | 490 kts | 44° |
| 2026-05-08 07:57 | 42.46387 | 5.04316 | 35293 ft | 490 kts | 44° |
| 2026-05-08 07:57 | 42.48528 | 5.07859 | 34663 ft | 490 kts | 43° |
| 2026-05-08 07:57 | 42.50691 | 5.11442 | 34072 ft | 491 kts | 43° |
| 2026-05-08 07:57 | 42.52865 | 5.15051 | 33344 ft | 492 kts | 44° |
| 2026-05-08 07:58 | 42.55031 | 5.18649 | 32729 ft | 490 kts | 44° |
| 2026-05-08 07:58 | 42.57179 | 5.22226 | 32117 ft | 489 kts | 44° |
| 2026-05-08 07:58 | 42.59330 | 5.25809 | 31494 ft | 487 kts | 44° |
| 2026-05-08 07:58 | 42.61438 | 5.29320 | 30896 ft | 485 kts | 45° |
| 2026-05-08 07:59 | 42.63562 | 5.32865 | 30289 ft | 483 kts | 45° |
| 2026-05-08 07:59 | 42.65685 | 5.36416 | 29625 ft | 480 kts | 46° |
| 2026-05-08 07:59 | 42.67782 | 5.39928 | 29034 ft | 475 kts | 46° |
| 2026-05-08 07:59 | 42.69835 | 5.43365 | 28462 ft | 470 kts | 47° |
| 2026-05-08 08:00 | 42.71887 | 5.46805 | 27883 ft | 466 kts | 47° |
| 2026-05-08 08:00 | 42.73913 | 5.50208 | 27322 ft | 461 kts | 48° |
| 2026-05-08 08:00 | 42.75924 | 5.53582 | 26832 ft | 455 kts | 48° |
| 2026-05-08 08:00 | 42.77907 | 5.56912 | 26270 ft | 451 kts | 49° |
| 2026-05-08 08:01 | 42.79867 | 5.60211 | 25728 ft | 446 kts | 49° |
| 2026-05-08 08:01 | 42.81791 | 5.63451 | 25185 ft | 429 kts | 50° |
| 2026-05-08 08:01 | 42.83629 | 5.66552 | 24733 ft | 410 kts | 50° |
| 2026-05-08 08:01 | 42.85384 | 5.69524 | 24286 ft | 407 kts | 50° |
| 2026-05-08 08:02 | 42.87156 | 5.72526 | 23800 ft | 404 kts | 51° |
| 2026-05-08 08:02 | 42.88915 | 5.75503 | 23297 ft | 401 kts | 51° |
| 2026-05-08 08:02 | 42.90658 | 5.78448 | 22818 ft | 396 kts | 51° |
| 2026-05-08 08:02 | 42.92377 | 5.81357 | 22342 ft | 392 kts | 52° |
| 2026-05-08 08:03 | 42.94081 | 5.84250 | 21881 ft | 388 kts | 52° |
| 2026-05-08 08:03 | 42.95761 | 5.87108 | 21417 ft | 384 kts | 52° |
| 2026-05-08 08:03 | 42.97427 | 5.89946 | 20947 ft | 381 kts | 52° |
| 2026-05-08 08:03 | 42.99058 | 5.92730 | 20483 ft | 378 kts | 52° |
| 2026-05-08 08:04 | 43.00702 | 5.95537 | 20011 ft | 376 kts | 52° |
| 2026-05-08 08:04 | 43.02336 | 5.98326 | 19546 ft | 374 kts | 52° |
| 2026-05-08 08:04 | 43.03961 | 6.01095 | 19073 ft | 372 kts | 52° |
| 2026-05-08 08:04 | 43.05576 | 6.03854 | 18628 ft | 371 kts | 52° |
| 2026-05-08 08:05 | 43.06645 | 6.05682 | 18314 ft | 370 kts | 52° |
| 2026-05-08 08:05 | 43.08772 | 6.09310 | 17662 ft | 366 kts | 51° |
| 2026-05-08 08:05 | 43.10360 | 6.12026 | 17220 ft | 363 kts | 51° |
| 2026-05-08 08:05 | 43.11922 | 6.14710 | 16784 ft | 359 kts | 51° |
| 2026-05-08 08:06 | 43.12955 | 6.16489 | 16495 ft | 357 kts | 51° |
| 2026-05-08 08:06 | 43.14496 | 6.19143 | 16067 ft | 354 kts | 51° |
| 2026-05-08 08:06 | 43.16522 | 6.22635 | 15499 ft | 351 kts | 51° |
| 2026-05-08 08:06 | 43.17548 | 6.24406 | 15197 ft | 349 kts | 51° |
| 2026-05-08 08:07 | 43.19037 | 6.26971 | 14795 ft | 347 kts | 51° |
| 2026-05-08 08:07 | 43.20539 | 6.29559 | 14374 ft | 345 kts | 51° |
| 2026-05-08 08:07 | 43.22034 | 6.32130 | 13937 ft | 343 kts | 51° |
| 2026-05-08 08:07 | 43.23518 | 6.34686 | 13497 ft | 341 kts | 51° |
| 2026-05-08 08:08 | 43.24994 | 6.37237 | 13060 ft | 338 kts | 51° |
| 2026-05-08 08:08 | 43.26449 | 6.39762 | 12636 ft | 335 kts | 51° |
| 2026-05-08 08:08 | 43.27888 | 6.42258 | 12226 ft | 332 kts | 51° |
| 2026-05-08 08:08 | 43.29319 | 6.44729 | 11792 ft | 330 kts | 52° |
| 2026-05-08 08:09 | 43.30725 | 6.47165 | 11373 ft | 327 kts | 52° |
| 2026-05-08 08:09 | 43.32133 | 6.49615 | 10950 ft | 325 kts | 52° |
| 2026-05-08 08:09 | 43.33533 | 6.52049 | 10530 ft | 323 kts | 52° |
| 2026-05-08 08:09 | 43.34917 | 6.54457 | 10218 ft | 317 kts | 52° |
| 2026-05-08 08:10 | 43.36259 | 6.56794 | 10109 ft | 306 kts | 52° |
| 2026-05-08 08:10 | 43.37538 | 6.59032 | 9988 ft | 295 kts | 53° |
| 2026-05-08 08:10 | 43.38568 | 6.61410 | 9770 ft | 287 kts | 68° |
| 2026-05-08 08:10 | 43.39185 | 6.64005 | 9385 ft | 285 kts | 75° |
| 2026-05-08 08:11 | 43.39733 | 6.66633 | 8987 ft | 284 kts | 75° |
| 2026-05-08 08:11 | 43.40281 | 6.69239 | 8616 ft | 283 kts | 75° |
| 2026-05-08 08:11 | 43.40830 | 6.71839 | 8161 ft | 284 kts | 75° |
| 2026-05-08 08:11 | 43.41373 | 6.74413 | 7756 ft | 283 kts | 75° |
| 2026-05-08 08:12 | 43.41916 | 6.76997 | 7344 ft | 277 kts | 75° |
| 2026-05-08 08:12 | 43.42447 | 6.79520 | 6968 ft | 274 kts | 75° |
| 2026-05-08 08:12 | 43.42979 | 6.82045 | 6568 ft | 274 kts | 75° |
| 2026-05-08 08:12 | 43.43508 | 6.84571 | 6156 ft | 272 kts | 75° |
| 2026-05-08 08:13 | 43.44024 | 6.87041 | 5745 ft | 266 kts | 75° |
| 2026-05-08 08:13 | 43.44523 | 6.89438 | 5338 ft | 263 kts | 75° |
| 2026-05-08 08:13 | 43.45034 | 6.91862 | 4968 ft | 261 kts | 72° |
| 2026-05-08 08:13 | 43.45904 | 6.94021 | 4630 ft | 259 kts | 49° |
| 2026-05-08 08:14 | 43.47160 | 6.95774 | 4330 ft | 260 kts | 46° |
| 2026-05-08 08:14 | 43.48463 | 6.97529 | 4028 ft | 259 kts | 46° |
| 2026-05-08 08:14 | 43.49743 | 6.99268 | 3731 ft | 258 kts | 46° |
| 2026-05-08 08:14 | 43.51013 | 7.01002 | 3429 ft | 256 kts | 46° |
| 2026-05-08 08:15 | 43.52276 | 7.02726 | 3126 ft | 255 kts | 46° |
| 2026-05-08 08:15 | 43.53537 | 7.04449 | 2998 ft | 254 kts | 46° |
| 2026-05-08 08:15 | 43.54757 | 7.06115 | 2849 ft | 246 kts | 46° |
| 2026-05-08 08:15 | 43.55968 | 7.07771 | 2563 ft | 243 kts | 46° |
| 2026-05-08 08:16 | 43.57148 | 7.09386 | 2259 ft | 233 kts | 45° |
| 2026-05-08 08:16 | 43.58280 | 7.10935 | 1952 ft | 226 kts | 45° |
| 2026-05-08 08:16 | 43.59380 | 7.12442 | 1677 ft | 220 kts | 45° |
| 2026-05-08 08:16 | 43.60439 | 7.13895 | 1352 ft | 204 kts | 44° |
| 2026-05-08 08:17 | 43.61374 | 7.15178 | 1117 ft | 177 kts | 43° |
| 2026-05-08 08:17 | 43.62194 | 7.16304 | 898 ft | 157 kts | 42° |
| 2026-05-08 08:17 | 43.62941 | 7.17329 | 682 ft | 147 kts | 42° |
| 2026-05-08 08:17 | 43.63655 | 7.18308 | 487 ft | 143 kts | 43° |
| 2026-05-08 08:18 | 43.64357 | 7.19271 | 308 ft | 141 kts | 43° |
| 2026-05-08 08:18 | 43.65050 | 7.20225 | 108 ft | 140 kts | 43° |
| 2026-05-08 08:18 | 43.65709 | 7.21125 | 22 ft | 119 kts | 44° |
| 2026-05-08 08:18 | 43.66144 | 7.21723 | 21 ft | 43 kts | 45° |
| 2026-05-08 08:19 | 43.66294 | 7.21925 | 23 ft | 24 kts | 36° |
| 2026-05-08 08:19 | 43.66420 | 7.22014 | 22 ft | 13 kts | 20° |
| 2026-05-08 08:19 | 43.66474 | 7.22040 | 22 ft | 0 kts | 19° |